Time;durP1;ratioP1;P1;durP2;ratioP2;P2;SDS_P1;SDS_P2;PMS_P1;PMS_P2;Temp;Humidity;BMP_temperature;BMP_pressure;BME280_temperature;BME280_humidity;BME280_pressure;Samples;Min_cycle;Max_cycle;Signal;HPM_P1;HPM_P2
2024/02/28 00:02:08;;;;;;;21.40;13.07;;;8.00;63.10;9.90;101797.00;;;;5010227;28;20744;-74
2024/02/28 00:04:35;;;;;;;20.85;12.02;;;8.00;63.90;10.00;101800.00;;;;5008841;28;20221;-74
2024/02/28 00:07:02;;;;;;;22.45;13.85;;;8.00;63.10;10.00;101796.00;;;;4994257;28;20225;-74
2024/02/28 00:09:29;;;;;;;20.75;12.52;;;8.00;63.10;9.90;101799.00;;;;4994503;28;20293;-73
2024/02/28 00:11:56;;;;;;;22.33;12.90;;;8.00;63.10;9.90;101801.00;;;;4994325;28;20193;-74
2024/02/28 00:14:25;;;;;;;20.02;12.35;;;8.00;63.00;9.90;101805.00;;;;5010541;28;20197;-73
2024/02/28 00:16:51;;;;;;;17.80;11.05;;;8.00;62.90;9.90;101803.00;;;;5013535;28;20280;-74
2024/02/28 00:19:20;;;;;;;22.30;13.57;;;8.00;62.80;9.90;101795.00;;;;5013106;28;20232;-73
2024/02/28 00:21:47;;;;;;;20.10;12.68;;;8.00;62.80;9.90;101803.00;;;;5013740;28;20192;-74
2024/02/28 00:24:14;;;;;;;21.17;12.30;;;8.00;62.80;9.90;101799.00;;;;4995487;28;20361;-75
2024/02/28 00:26:43;;;;;;;22.58;12.60;;;7.90;62.70;9.80;101798.00;;;;4995854;28;20627;-73
2024/02/28 00:29:11;;;;;;;21.10;12.35;;;7.90;62.70;9.80;101798.00;;;;5013464;28;20319;-74
2024/02/28 00:31:39;;;;;;;23.48;13.23;;;7.90;62.70;9.80;101794.00;;;;5012008;28;20287;-74
2024/02/28 00:34:08;;;;;;;22.15;13.52;;;7.90;62.70;9.70;101807.00;;;;4996319;28;20288;-74
2024/02/28 00:36:35;;;;;;;23.02;14.02;;;7.80;62.60;9.70;101797.00;;;;4993721;28;20221;-74
2024/02/28 00:39:03;;;;;;;22.50;13.63;;;7.80;62.60;9.70;101799.00;;;;4999203;28;20294;-74
2024/02/28 00:41:31;;;;;;;19.92;12.23;;;7.70;62.50;9.60;101804.00;;;;5011904;28;20256;-74
2024/02/28 00:43:58;;;;;;;21.08;12.73;;;7.70;62.50;9.60;101800.00;;;;5001184;28;20203;-74
2024/02/28 00:46:25;;;;;;;19.48;11.18;;;7.70;62.60;9.60;101807.00;;;;5013095;28;20211;-73
2024/02/28 00:48:53;;;;;;;21.45;12.25;;;7.60;62.50;9.50;101798.00;;;;5005280;28;20269;-74
2024/02/28 00:51:20;;;;;;;20.08;12.10;;;7.60;62.50;9.50;101795.00;;;;4993993;28;20284;-74
2024/02/28 00:53:48;;;;;;;21.50;13.10;;;7.50;63.00;9.40;101793.00;;;;4992784;28;20616;-74
2024/02/28 00:56:15;;;;;;;20.40;12.68;;;7.50;62.30;9.40;101797.00;;;;4993737;28;20280;-74
2024/02/28 00:58:44;;;;;;;21.45;13.00;;;7.40;62.40;9.30;101787.00;;;;4994463;28;20292;-73
2024/02/28 01:01:13;;;;;;;20.90;12.52;;;7.40;62.40;9.30;101789.00;;;;4993820;28;20205;-73
2024/02/28 01:03:40;;;;;;;19.42;11.48;;;7.40;62.40;9.20;101782.00;;;;5002340;28;20312;-73
2024/02/28 01:06:08;;;;;;;22.23;13.27;;;7.30;62.40;9.20;101783.00;;;;5005517;28;20277;-73
2024/02/28 01:08:35;;;;;;;22.80;12.52;;;7.30;62.40;9.20;101789.00;;;;4993137;28;20309;-73
2024/02/28 01:11:03;;;;;;;25.15;14.23;;;7.20;62.40;9.10;101785.00;;;;4993725;28;20229;-73
2024/02/28 01:13:30;;;;;;;19.23;12.63;;;7.20;62.40;9.10;101774.00;;;;4992657;28;20200;-73
2024/02/28 01:15:59;;;;;;;20.60;12.05;;;7.10;62.30;9.10;101785.00;;;;4992658;28;20630;-73
2024/02/28 01:18:28;;;;;;;21.80;12.75;;;7.10;62.40;9.00;101777.00;;;;4993231;28;20229;-73
2024/02/28 01:20:55;;;;;;;23.23;13.30;;;7.10;62.50;9.00;101780.00;;;;4996071;28;20215;-73
2024/02/28 01:23:23;;;;;;;23.65;13.57;;;7.00;62.40;8.90;101782.00;;;;5003411;28;20212;-73
2024/02/28 01:25:50;;;;;;;23.27;13.38;;;7.00;62.60;8.90;101787.00;;;;4992916;28;20205;-73
2024/02/28 01:28:17;;;;;;;22.75;12.05;;;7.00;62.60;8.90;101780.00;;;;4992498;28;20308;-74
2024/02/28 01:30:45;;;;;;;20.73;12.70;;;7.00;62.70;8.90;101791.00;;;;5010158;28;20296;-73
2024/02/28 01:33:13;;;;;;;22.73;12.98;;;6.90;62.60;8.80;101795.00;;;;5004896;28;20205;-73
2024/02/28 01:35:41;;;;;;;19.00;12.35;;;6.90;62.70;8.80;101790.00;;;;5001973;28;20201;-73
2024/02/28 01:38:08;;;;;;;21.85;13.35;;;6.90;62.70;8.90;101787.00;;;;5009413;28;21107;-73
2024/02/28 01:40:36;;;;;;;23.25;13.75;;;6.80;62.80;8.80;101783.00;;;;4992583;28;20726;-74
2024/02/28 01:43:04;;;;;;;28.33;14.85;;;6.90;63.00;8.80;101780.00;;;;4992227;28;20701;-73
2024/02/28 01:45:32;;;;;;;23.42;14.75;;;6.80;63.00;8.80;101773.00;;;;4992537;28;20205;-74
2024/02/28 01:47:59;;;;;;;26.23;14.23;;;6.80;63.20;8.80;101781.00;;;;4992664;28;20312;-73
2024/02/28 01:50:42;;;;;;;25.85;13.50;;;6.80;63.20;8.70;101785.00;;;;4992712;28;20225;-73
2024/02/28 01:53:13;;;;;;;27.52;13.25;;;6.80;63.40;8.80;101775.00;;;;4992475;28;20316;-73
2024/02/28 01:55:43;;;;;;;33.55;14.05;;;6.80;63.40;8.80;101771.00;;;;5002259;28;20228;-74
2024/02/28 01:58:11;;;;;;;33.50;13.20;;;6.80;63.30;8.80;101770.00;;;;4998325;28;20268;-73
2024/02/28 02:00:39;;;;;;;33.58;13.77;;;6.80;63.40;8.90;101774.00;;;;5012091;28;20287;-74
2024/02/28 02:03:06;;;;;;;27.20;12.70;;;6.80;63.40;8.90;101783.00;;;;5008493;28;20341;-74
2024/02/28 02:05:33;;;;;;;33.40;13.90;;;6.80;63.40;8.90;101784.00;;;;5011347;28;20365;-74
2024/02/28 02:08:02;;;;;;;27.35;11.88;;;6.90;63.40;8.90;101780.00;;;;5010923;28;20307;-73
2024/02/28 02:10:29;;;;;;;24.27;10.63;;;6.90;63.50;8.90;101785.00;;;;4995252;28;20750;-73
2024/02/28 02:13:05;;;;;;;22.08;10.93;;;6.80;63.50;8.80;101789.00;;;;4992187;28;20296;-73
2024/02/28 02:15:33;;;;;;;28.08;10.27;;;6.90;63.60;8.90;101787.00;;;;4992441;28;20284;-73
2024/02/28 02:18:00;;;;;;;21.63;10.95;;;6.80;63.50;8.90;101785.00;;;;4992297;28;20316;-73
2024/02/28 02:20:33;;;;;;;36.08;11.50;;;6.80;63.50;8.80;101782.00;;;;5002908;28;20302;-73
2024/02/28 02:23:02;;;;;;;26.90;10.35;;;6.80;63.50;8.90;101796.00;;;;4991473;28;20197;-73
2024/02/28 02:25:29;;;;;;;21.92;10.98;;;6.80;63.60;8.90;101788.00;;;;4992572;28;20272;-73
2024/02/28 02:27:56;;;;;;;24.90;9.85;;;6.80;63.60;8.80;101794.00;;;;4991606;28;20225;-73
2024/02/28 02:30:23;;;;;;;19.77;9.68;;;6.80;63.60;8.90;101793.00;;;;5010727;28;20292;-73
2024/02/28 02:32:50;;;;;;;17.00;10.40;;;6.80;63.50;8.90;101782.00;;;;5011785;28;20279;-73
2024/02/28 02:35:17;;;;;;;26.83;10.60;;;6.80;63.60;8.80;101781.00;;;;4991965;28;20301;-74
2024/02/28 02:37:47;;;;;;;21.58;10.55;;;6.80;63.60;8.80;101783.00;;;;4992240;28;20309;-73
2024/02/28 02:40:16;;;;;;;25.05;10.50;;;6.80;63.60;8.80;101786.00;;;;4998660;28;20196;-73
2024/02/28 02:42:44;;;;;;;26.08;10.60;;;6.80;63.60;8.80;101790.00;;;;5005785;28;20228;-73
2024/02/28 02:45:11;;;;;;;18.17;9.55;;;6.70;63.60;8.80;101789.00;;;;5009371;28;20199;-73
2024/02/28 02:47:38;;;;;;;14.02;8.30;;;6.70;63.50;8.80;101792.00;;;;5010629;28;20244;-73
2024/02/28 02:50:06;;;;;;;12.80;9.00;;;6.70;63.50;8.80;101788.00;;;;4995318;28;20289;-74
2024/02/28 02:52:33;;;;;;;14.07;9.20;;;6.70;63.60;8.70;101793.00;;;;4992388;28;20297;-74
2024/02/28 02:55:00;;;;;;;12.75;8.18;;;6.70;63.60;8.70;101791.00;;;;4991305;28;20891;-74
2024/02/28 02:57:30;;;;;;;16.38;9.52;;;6.70;63.60;8.70;101791.00;;;;4991507;28;20290;-74
2024/02/28 02:59:57;;;;;;;14.60;9.27;;;6.70;63.60;8.70;101779.00;;;;5001824;28;20209;-74
2024/02/28 03:02:24;;;;;;;15.00;9.52;;;6.60;63.60;8.70;101786.00;;;;4992052;28;20213;-74
2024/02/28 03:04:52;;;;;;;18.10;8.90;;;6.60;63.60;8.70;101782.00;;;;4991222;28;20289;-74
2024/02/28 03:07:19;;;;;;;13.50;9.15;;;6.60;63.60;8.60;101780.00;;;;4991885;28;20289;-74
2024/02/28 03:09:46;;;;;;;16.90;8.90;;;6.60;63.60;8.60;101773.00;;;;4991784;28;20730;-74
2024/02/28 03:12:13;;;;;;;16.45;9.75;;;6.60;63.60;8.60;101770.00;;;;5010274;28;20275;-74
2024/02/28 03:14:41;;;;;;;14.18;9.27;;;6.60;63.60;8.60;101772.00;;;;4999311;28;20616;-73
2024/02/28 03:17:08;;;;;;;12.02;8.57;;;6.50;63.60;8.50;101770.00;;;;4993660;28;20216;-74
2024/02/28 03:19:36;;;;;;;12.30;8.93;;;6.50;63.50;8.50;101769.00;;;;4996493;28;20232;-74
2024/02/28 03:22:03;;;;;;;11.80;8.52;;;6.50;63.50;8.50;101766.00;;;;5013609;28;20292;-74
2024/02/28 03:24:31;;;;;;;9.98;7.72;;;6.50;63.50;8.50;101760.00;;;;5013592;28;20204;-74
2024/02/28 03:26:58;;;;;;;12.57;9.40;;;6.40;63.40;8.40;101763.00;;;;5013414;28;20284;-73
2024/02/28 03:29:25;;;;;;;13.73;9.30;;;6.40;63.50;8.40;101763.00;;;;5003697;28;20243;-74
2024/02/28 03:31:53;;;;;;;13.07;9.80;;;6.40;63.60;8.40;101757.00;;;;4994846;28;20256;-74
2024/02/28 03:34:20;;;;;;;12.50;8.52;;;6.40;63.60;8.40;101763.00;;;;5001808;28;20300;-74
2024/02/28 03:36:47;;;;;;;15.50;8.80;;;6.40;63.60;8.40;101762.00;;;;5011859;28;20304;-74
2024/02/28 03:39:13;;;;;;;11.88;9.15;;;6.30;63.60;8.40;101768.00;;;;5006655;28;20308;-74
2024/02/28 03:41:40;;;;;;;11.20;8.30;;;6.40;63.80;8.40;101756.00;;;;5000514;28;20628;-74
2024/02/28 03:44:08;;;;;;;10.55;8.10;;;6.40;63.80;8.40;101764.00;;;;4994769;28;20232;-74
2024/02/28 03:46:35;;;;;;;11.60;8.70;;;6.40;63.90;8.50;101761.00;;;;5007139;28;20663;-73
2024/02/28 03:49:03;;;;;;;11.35;8.57;;;6.40;64.70;8.50;101766.00;;;;5000317;28;20232;-73
2024/02/28 03:51:30;;;;;;;12.20;8.80;;;6.40;64.00;8.50;101767.00;;;;4996012;28;20198;-74
2024/02/28 03:53:57;;;;;;;12.20;9.07;;;6.40;64.10;8.60;101770.00;;;;4995431;28;20284;-74
2024/02/28 03:56:25;;;;;;;11.57;8.35;;;6.40;64.20;8.60;101762.00;;;;4994232;28;20225;-75
2024/02/28 03:58:53;;;;;;;11.07;8.93;;;6.50;64.30;8.60;101771.00;;;;4993757;28;20209;-75
2024/02/28 04:01:20;;;;;;;11.52;8.90;;;6.50;64.30;8.60;101771.00;;;;4994231;28;20288;-74
2024/02/28 04:03:47;;;;;;;13.10;8.95;;;6.60;64.40;8.70;101767.00;;;;5001301;28;20224;-75
2024/02/28 04:06:16;;;;;;;11.02;8.52;;;6.60;64.50;8.70;101769.00;;;;5014120;28;20702;-75
2024/02/28 04:08:43;;;;;;;11.93;8.70;;;6.60;64.40;8.80;101780.00;;;;5011834;28;20232;-75
2024/02/28 04:11:10;;;;;;;11.05;8.32;;;6.70;64.50;8.80;101773.00;;;;5011412;28;20260;-73
2024/02/28 04:13:37;;;;;;;12.20;8.60;;;6.70;64.40;8.80;101772.00;;;;5001096;28;20229;-74
2024/02/28 04:16:05;;;;;;;11.65;8.63;;;6.70;64.40;8.90;101776.00;;;;5012211;28;20291;-74
2024/02/28 04:18:32;;;;;;;12.00;9.20;;;6.80;64.50;8.90;101779.00;;;;5005294;28;20233;-74
2024/02/28 04:21:00;;;;;;;11.45;8.77;;;6.80;64.40;8.90;101776.00;;;;5004061;28;20663;-74
2024/02/28 04:23:28;;;;;;;12.05;9.07;;;6.80;64.40;9.00;101777.00;;;;4998189;28;20194;-74
2024/02/28 04:25:55;;;;;;;9.57;7.55;;;6.80;64.40;9.00;101783.00;;;;5003631;28;20233;-73
2024/02/28 04:28:22;;;;;;;10.52;8.05;;;6.90;64.40;9.00;101783.00;;;;4996493;28;20281;-74
2024/02/28 04:30:49;;;;;;;11.52;8.88;;;6.90;64.40;9.00;101774.00;;;;4998256;28;20288;-74
2024/02/28 04:33:17;;;;;;;11.40;8.63;;;7.00;64.50;9.10;101777.00;;;;5012421;28;20208;-74
2024/02/28 04:35:45;;;;;;;12.43;8.82;;;7.00;64.50;9.10;101782.00;;;;5001118;28;20200;-73
2024/02/28 04:38:12;;;;;;;12.27;8.25;;;7.00;64.50;9.10;101786.00;;;;5003939;28;20208;-74
2024/02/28 04:40:40;;;;;;;10.30;8.52;;;7.10;64.40;9.20;101782.00;;;;5011398;28;20207;-74
2024/02/28 04:43:07;;;;;;;11.63;9.25;;;7.10;64.40;9.20;101784.00;;;;4999058;28;20288;-74
2024/02/28 04:45:35;;;;;;;10.57;8.07;;;7.10;64.40;9.20;101784.00;;;;4994210;28;20276;-74
2024/02/28 04:48:02;;;;;;;11.65;8.02;;;7.20;64.50;9.20;101787.00;;;;4993647;28;20530;-74
2024/02/28 04:50:29;;;;;;;11.32;8.32;;;7.20;64.50;9.30;101791.00;;;;4993092;28;20316;-73
2024/02/28 04:52:56;;;;;;;11.85;8.43;;;7.20;64.30;9.30;101809.00;;;;5005757;28;20686;-73
2024/02/28 04:55:24;;;;;;;9.73;7.10;;;7.30;64.40;9.30;101806.00;;;;5000337;28;20205;-74
2024/02/28 04:57:52;;;;;;;9.50;7.65;;;7.30;64.40;9.40;101815.00;;;;5000220;28;20236;-74
2024/02/28 05:00:19;;;;;;;10.90;7.53;;;7.30;64.40;9.40;101811.00;;;;4997101;28;20280;-74
2024/02/28 05:02:47;;;;;;;11.00;7.68;;;7.30;64.50;9.40;101806.00;;;;4993255;28;20955;-74
2024/02/28 05:05:14;;;;;;;9.55;7.57;;;7.40;64.50;9.50;101815.00;;;;4997329;28;20626;-74
2024/02/28 05:07:41;;;;;;;11.98;8.30;;;7.40;64.40;9.50;101817.00;;;;4993407;28;20280;-73
2024/02/28 05:10:09;;;;;;;11.07;8.18;;;7.40;64.40;9.50;101813.00;;;;5007219;28;20315;-73
2024/02/28 05:12:37;;;;;;;10.75;8.15;;;7.40;64.40;9.50;101814.00;;;;5011280;28;20212;-74
2024/02/28 05:15:07;;;;;;;11.93;8.05;;;7.40;64.40;9.50;101805.00;;;;5009722;28;20280;-74
2024/02/28 05:17:34;;;;;;;10.40;8.38;;;7.50;64.50;9.60;101804.00;;;;4995836;28;20213;-74
2024/02/28 05:20:01;;;;;;;10.30;7.80;;;7.50;64.50;9.60;101812.00;;;;4993590;28;20239;-74
2024/02/28 05:22:28;;;;;;;10.50;8.38;;;7.50;64.50;9.60;101809.00;;;;4994237;28;20284;-74
2024/02/28 05:24:55;;;;;;;11.05;8.43;;;7.50;64.50;9.60;101802.00;;;;4998740;28;20578;-73
2024/02/28 05:27:22;;;;;;;10.50;8.02;;;7.50;64.40;9.70;101801.00;;;;4995045;28;20280;-74
2024/02/28 05:29:50;;;;;;;10.73;7.70;;;7.60;64.50;9.70;101803.00;;;;4992930;28;20236;-74
2024/02/28 05:32:18;;;;;;;9.98;7.97;;;7.60;64.40;9.70;101803.00;;;;4996909;28;20292;-74
2024/02/28 05:34:47;;;;;;;9.45;7.45;;;7.60;64.40;9.70;101802.00;;;;4992158;28;20203;-74
2024/02/28 05:37:14;;;;;;;9.10;7.18;;;7.70;64.50;9.80;101810.00;;;;4993075;28;20201;-74
2024/02/28 05:39:41;;;;;;;10.57;7.80;;;7.70;64.50;9.80;101810.00;;;;4992486;28;20281;-74
2024/02/28 05:42:09;;;;;;;10.68;8.07;;;7.70;64.60;9.80;101811.00;;;;5002616;28;20203;-74
2024/02/28 05:44:36;;;;;;;10.65;7.45;;;7.70;64.60;9.80;101806.00;;;;4999869;28;20250;-73
2024/02/28 05:47:03;;;;;;;10.05;8.00;;;7.80;64.70;9.80;101819.00;;;;4994232;28;20198;-73
2024/02/28 05:49:31;;;;;;;10.43;7.97;;;7.80;64.60;9.90;101803.00;;;;4993864;28;20421;-74
2024/02/28 05:51:58;;;;;;;10.40;7.43;;;7.80;64.60;9.90;101809.00;;;;5003890;28;20754;-74
2024/02/28 05:54:25;;;;;;;8.68;7.63;;;7.80;64.60;9.90;101807.00;;;;5006659;28;20295;-74
2024/02/28 05:56:53;;;;;;;10.98;7.65;;;7.90;64.50;9.90;101807.00;;;;4992452;28;20285;-74
2024/02/28 05:59:20;;;;;;;10.77;8.50;;;7.90;64.50;10.00;101807.00;;;;5000623;28;20578;-75
2024/02/28 06:01:47;;;;;;;9.35;7.65;;;7.90;64.60;10.00;101806.00;;;;5004014;28;20280;-75
2024/02/28 06:04:14;;;;;;;9.90;7.57;;;7.90;64.60;10.00;101808.00;;;;5011086;28;20631;-75
2024/02/28 06:06:43;;;;;;;9.45;7.65;;;8.00;64.60;10.00;101813.00;;;;5009387;28;20205;-75
2024/02/28 06:09:10;;;;;;;9.73;7.88;;;8.00;64.60;10.00;101809.00;;;;4993391;28;20221;-75
2024/02/28 06:11:38;;;;;;;10.10;7.97;;;8.00;64.60;10.10;101823.00;;;;5007753;28;20193;-74
2024/02/28 06:14:05;;;;;;;12.50;9.48;;;8.00;64.60;10.10;101817.00;;;;5003254;28;20209;-75
2024/02/28 06:16:32;;;;;;;9.90;7.80;;;8.00;64.60;10.10;101813.00;;;;4996197;28;20189;-75
2024/02/28 06:18:59;;;;;;;10.27;8.52;;;8.10;64.70;10.10;101815.00;;;;4992421;28;20627;-76
2024/02/28 06:21:26;;;;;;;12.13;8.32;;;8.10;64.70;10.10;101819.00;;;;4992566;28;20252;-76
2024/02/28 06:23:55;;;;;;;10.57;7.78;;;8.10;64.70;10.20;101825.00;;;;4997612;28;20236;-75
2024/02/28 06:26:23;;;;;;;9.95;7.93;;;8.10;64.60;10.20;101827.00;;;;4991514;28;20228;-75
2024/02/28 06:29:00;;;;;;;9.18;8.07;;;8.10;64.70;10.20;101826.00;;;;4993918;28;20214;-75
2024/02/28 06:31:31;;;;;;;9.02;7.35;;;8.20;64.70;10.20;101822.00;;;;4994902;28;20696;-75
2024/02/28 06:34:00;;;;;;;9.90;7.53;;;8.20;64.70;10.20;101820.00;;;;4998790;28;20253;-75
2024/02/28 06:36:27;;;;;;;8.98;7.72;;;8.20;64.70;10.30;101824.00;;;;5005795;28;20197;-75
2024/02/28 06:38:56;;;;;;;9.77;8.52;;;8.20;64.70;10.20;101825.00;;;;4995885;28;20244;-74
2024/02/28 06:41:23;;;;;;;9.68;8.15;;;8.30;64.80;10.30;101835.00;;;;4999988;28;20590;-76
2024/02/28 06:43:50;;;;;;;9.00;7.40;;;8.30;64.80;10.30;101839.00;;;;4994205;28;20284;-75
2024/02/28 06:46:17;;;;;;;9.60;7.88;;;8.30;64.80;10.40;101837.00;;;;4992206;28;20284;-75
2024/02/28 06:48:44;;;;;;;8.65;7.55;;;8.30;64.80;10.30;101839.00;;;;4992174;28;20204;-75
2024/02/28 06:51:12;;;;;;;9.27;8.30;;;8.40;65.00;10.40;101856.00;;;;4990408;28;20680;-74
2024/02/28 06:53:39;;;;;;;10.25;8.30;;;8.40;65.00;10.40;101853.00;;;;5003462;28;20614;-75
2024/02/28 06:56:07;;;;;;;10.52;8.88;;;8.40;65.00;10.40;101854.00;;;;5008114;28;20193;-74
2024/02/28 06:58:34;;;;;;;9.32;7.80;;;8.40;65.00;10.40;101860.00;;;;4997310;28;20261;-75
2024/02/28 07:01:02;;;;;;;9.88;7.95;;;8.40;65.00;10.50;101874.00;;;;5002289;28;20263;-76
2024/02/28 07:03:29;;;;;;;9.85;7.90;;;8.50;65.10;10.50;101876.00;;;;4998219;28;20220;-70
2024/02/28 07:05:56;;;;;;;12.38;8.10;;;8.50;65.10;10.50;101881.00;;;;5012356;28;20286;-70
2024/02/28 07:08:23;;;;;;;10.93;8.05;;;8.50;65.10;10.50;101878.00;;;;5010501;28;20199;-70
2024/02/28 07:10:53;;;;;;;8.85;7.80;;;8.50;65.10;10.60;101874.00;;;;4995248;28;20308;-70
2024/02/28 07:13:22;;;;;;;10.13;7.93;;;8.60;65.10;10.60;101882.00;;;;4995781;28;20213;-70
2024/02/28 07:15:49;;;;;;;10.57;8.23;;;8.60;65.20;10.60;101888.00;;;;5005548;28;20224;-70
2024/02/28 07:18:17;;;;;;;8.45;7.55;;;8.60;65.20;10.70;101884.00;;;;4994764;28;20229;-70
2024/02/28 07:20:44;;;;;;;8.88;7.53;;;8.70;65.90;10.70;101887.00;;;;4994939;28;20292;-70
2024/02/28 07:23:11;;;;;;;9.68;8.05;;;8.70;65.20;10.80;101887.00;;;;5012932;28;20281;-70
2024/02/28 07:25:38;;;;;;;11.63;8.18;;;8.70;65.10;10.80;101889.00;;;;5024299;28;20186;-70
2024/02/28 07:28:06;;;;;;;11.63;8.98;;;8.70;65.10;10.80;101892.00;;;;5024436;28;20193;-70
2024/02/28 07:30:35;;;;;;;10.15;7.50;;;8.80;65.20;10.80;101899.00;;;;5020014;28;20308;-70
2024/02/28 07:33:02;;;;;;;10.73;7.80;;;8.80;65.10;10.80;101899.00;;;;5017134;28;20603;-70
2024/02/28 07:35:30;;;;;;;9.57;7.70;;;8.80;65.10;10.90;101905.00;;;;5020517;28;20250;-70
2024/02/28 07:37:57;;;;;;;10.30;7.93;;;8.90;65.20;10.90;101898.00;;;;5020690;28;20204;-71
2024/02/28 07:40:24;;;;;;;9.02;7.80;;;8.90;65.20;10.90;101903.00;;;;5017690;28;20279;-70
2024/02/28 07:42:51;;;;;;;9.73;7.68;;;8.90;65.20;10.90;101907.00;;;;5000597;28;20289;-70
2024/02/28 07:45:19;;;;;;;11.38;8.32;;;8.90;65.20;10.90;101906.00;;;;4995389;28;20205;-70
2024/02/28 07:47:47;;;;;;;8.35;7.25;;;9.00;65.30;11.00;101912.00;;;;4995113;28;20601;-70
2024/02/28 07:50:16;;;;;;;9.40;7.50;;;9.00;65.30;11.00;101914.00;;;;5009201;28;20315;-70
2024/02/28 07:52:43;;;;;;;9.98;7.85;;;9.00;65.40;11.00;101917.00;;;;5014806;28;20207;-70
2024/02/28 07:55:10;;;;;;;9.60;7.93;;;9.00;65.30;11.10;101918.00;;;;5014325;28;20292;-70
2024/02/28 07:57:37;;;;;;;8.70;7.63;;;9.10;65.30;11.10;101921.00;;;;5012454;28;20287;-70
2024/02/28 08:00:05;;;;;;;9.07;7.60;;;9.10;65.40;11.10;101922.00;;;;5013968;28;20201;-70
2024/02/28 08:02:33;;;;;;;10.38;8.07;;;9.10;65.40;11.10;101925.00;;;;5013998;28;20299;-70
2024/02/28 08:05:01;;;;;;;8.50;7.53;;;9.10;65.40;11.20;101927.00;;;;5012398;28;20212;-70
2024/02/28 08:07:28;;;;;;;10.43;7.72;;;9.20;65.50;11.20;101933.00;;;;4998171;28;20198;-70
2024/02/28 08:09:56;;;;;;;8.55;7.63;;;9.20;65.60;11.30;101933.00;;;;4993288;28;20224;-70
2024/02/28 08:12:23;;;;;;;10.10;8.32;;;9.30;65.50;11.30;101935.00;;;;5001214;28;20567;-70
2024/02/28 08:14:50;;;;;;;12.55;8.48;;;9.30;65.50;11.40;101940.00;;;;5008364;28;20195;-70
2024/02/28 08:17:17;;;;;;;10.23;8.45;;;9.30;65.50;11.40;101946.00;;;;4997433;28;20288;-70
2024/02/28 08:19:44;;;;;;;9.85;8.35;;;9.40;65.50;11.40;101938.00;;;;4994438;28;20308;-70
2024/02/28 08:22:13;;;;;;;8.82;7.93;;;9.40;65.50;11.40;101946.00;;;;5020917;28;20193;-71
2024/02/28 08:24:40;;;;;;;9.95;8.57;;;9.40;65.40;11.40;101953.00;;;;5023323;28;20242;-70
2024/02/28 08:27:07;;;;;;;11.63;8.02;;;9.50;65.40;11.50;101954.00;;;;5022045;28;20617;-71
2024/02/28 08:29:35;;;;;;;8.82;7.93;;;9.50;65.40;11.50;101951.00;;;;5021374;28;20212;-70
2024/02/28 08:32:03;;;;;;;10.93;8.75;;;9.50;65.50;11.60;101956.00;;;;5025088;28;20279;-71
2024/02/28 08:34:30;;;;;;;10.50;8.63;;;9.60;65.50;11.60;101962.00;;;;5024615;28;20197;-70
2024/02/28 08:36:57;;;;;;;11.07;9.07;;;9.60;65.40;11.60;101954.00;;;;5018856;28;20757;-71
2024/02/28 08:39:26;;;;;;;10.00;8.75;;;9.60;65.40;11.60;101954.00;;;;5018959;28;20272;-71
2024/02/28 08:41:54;;;;;;;9.88;8.88;;;9.70;65.40;11.70;101967.00;;;;5019267;28;20291;-71
2024/02/28 08:44:22;;;;;;;11.15;9.13;;;9.70;65.40;11.80;101960.00;;;;5016704;28;20197;-71
2024/02/28 08:46:50;;;;;;;13.48;9.43;;;9.70;65.40;11.80;101957.00;;;;5019187;28;20193;-71
2024/02/28 08:49:18;;;;;;;10.48;8.70;;;9.80;65.50;11.90;101965.00;;;;5019349;28;20197;-71
2024/02/28 08:51:45;;;;;;;10.80;9.27;;;9.80;65.40;11.90;101961.00;;;;5019023;28;20221;-71
2024/02/28 08:54:12;;;;;;;12.98;9.73;;;9.90;65.50;11.90;101967.00;;;;5018574;28;20706;-71
2024/02/28 08:56:40;;;;;;;10.80;9.70;;;9.90;65.50;12.00;101966.00;;;;5019982;28;20573;-71
2024/02/28 08:59:07;;;;;;;11.20;8.95;;;10.00;65.50;12.00;101961.00;;;;5016047;28;20292;-71
2024/02/28 09:01:35;;;;;;;12.02;9.43;;;10.00;65.40;12.00;101956.00;;;;5023487;28;20284;-71
2024/02/28 09:04:03;;;;;;;12.75;9.95;;;10.10;65.40;12.10;101958.00;;;;5012392;28;20248;-70
2024/02/28 09:06:31;;;;;;;11.85;9.15;;;10.10;65.40;12.20;101956.00;;;;5015826;28;20184;-71
2024/02/28 09:08:58;;;;;;;11.35;9.85;;;10.10;65.30;12.20;101946.00;;;;5025262;28;20204;-71
2024/02/28 09:11:25;;;;;;;11.43;9.95;;;10.20;65.40;12.20;101954.00;;;;5018943;28;20307;-71
2024/02/28 09:13:55;;;;;;;12.20;9.18;;;10.20;65.30;12.30;101950.00;;;;5013238;28;20205;-71
2024/02/28 09:16:23;;;;;;;11.88;9.77;;;10.30;65.30;12.30;101944.00;;;;5022790;28;20197;-71
2024/02/28 09:18:51;;;;;;;12.43;10.30;;;10.30;65.30;12.40;101948.00;;;;5024665;28;20216;-71
2024/02/28 09:21:19;;;;;;;13.35;10.05;;;10.40;65.40;12.50;101943.00;;;;5024364;28;20605;-71
2024/02/28 09:23:46;;;;;;;10.95;9.75;;;10.40;65.50;12.60;101938.00;;;;5016679;28;20208;-71
2024/02/28 09:26:13;;;;;;;14.90;11.23;;;10.50;65.50;12.60;101947.00;;;;4996724;28;20204;-76
2024/02/28 09:28:41;;;;;;;12.32;10.50;;;10.60;65.60;12.70;101947.00;;;;5005494;28;20203;-75
2024/02/28 09:31:10;;;;;;;13.75;10.90;;;10.70;65.50;12.80;101945.00;;;;5008610;28;20238;-75
2024/02/28 09:33:38;;;;;;;11.95;10.73;;;10.70;65.40;12.80;101945.00;;;;5002391;28;20274;-75
2024/02/28 09:36:06;;;;;;;12.07;10.32;;;10.80;65.40;12.90;101949.00;;;;5005176;28;20276;-76
2024/02/28 09:38:34;;;;;;;15.82;10.38;;;10.80;65.30;13.00;101943.00;;;;5009471;28;20197;-76
2024/02/28 09:41:01;;;;;;;13.05;10.35;;;10.90;65.30;13.00;101945.00;;;;5015612;28;20216;-75
2024/02/28 09:43:31;;;;;;;13.82;10.55;;;11.00;65.30;13.10;101949.00;;;;5016703;28;20231;-75
2024/02/28 09:46:04;;;;;;;11.70;10.20;;;11.10;65.20;13.10;101950.00;;;;5021816;28;20243;-76
2024/02/28 09:48:33;;;;;;;14.10;11.45;;;11.10;65.20;13.20;101949.00;;;;5009063;28;20224;-76
2024/02/28 09:51:01;;;;;;;14.00;10.63;;;11.20;65.10;13.20;101954.00;;;;5018327;28;20248;-75
2024/02/28 09:53:28;;;;;;;11.70;9.75;;;11.20;65.00;13.30;101949.00;;;;5017697;28;20229;-75
2024/02/28 09:55:56;;;;;;;13.43;10.02;;;11.30;65.00;13.40;101948.00;;;;5014110;28;20284;-75
2024/02/28 09:58:25;;;;;;;12.38;9.90;;;11.40;65.00;13.40;101956.00;;;;5015433;28;20201;-75
2024/02/28 10:00:59;;;;;;;12.48;9.85;;;11.40;65.10;13.50;101960.00;;;;5012885;28;20283;-75
2024/02/28 10:03:28;;;;;;;11.25;9.82;;;11.50;65.10;13.60;101963.00;;;;5014173;28;20215;-75
2024/02/28 10:05:56;;;;;;;14.18;10.25;;;11.60;65.00;13.60;101971.00;;;;5015018;28;20284;-75
2024/02/28 10:08:24;;;;;;;14.13;11.15;;;11.60;65.00;13.70;101977.00;;;;5009151;28;20254;-76
2024/02/28 10:10:54;;;;;;;15.20;10.70;;;11.70;64.90;13.80;101976.00;;;;5008487;28;20298;-75
2024/02/28 10:13:21;;;;;;;13.68;10.38;;;11.80;64.90;13.80;101972.00;;;;4991985;28;20197;-76
2024/02/28 10:15:50;;;;;;;14.85;10.90;;;11.80;64.80;13.90;101971.00;;;;5007645;28;20231;-76
2024/02/28 10:18:17;;;;;;;11.70;10.07;;;11.90;64.80;13.90;101968.00;;;;5018131;28;20256;-73
2024/02/28 10:20:44;;;;;;;13.23;10.90;;;11.90;64.60;14.00;101973.00;;;;5012046;28;20295;-73
2024/02/28 10:23:13;;;;;;;13.07;10.90;;;12.00;64.70;14.00;101968.00;;;;5001562;28;20617;-72
2024/02/28 10:25:44;;;;;;;13.75;10.55;;;12.10;64.60;14.00;101986.00;;;;5012847;28;20320;-73
2024/02/28 10:28:13;;;;;;;12.25;10.43;;;12.10;64.40;14.10;101990.00;;;;5016514;28;20193;-73
2024/02/28 10:30:41;;;;;;;11.85;9.90;;;12.20;64.30;14.10;101974.00;;;;5007716;28;20655;-73
2024/02/28 10:33:13;;;;;;;13.45;11.52;;;12.20;64.10;14.10;101972.00;;;;5004395;28;20228;-73
2024/02/28 10:35:42;;;;;;;16.27;11.27;;;12.20;64.00;14.20;101978.00;;;;4995358;28;20264;-73
2024/02/28 10:38:13;;;;;;;13.52;10.23;;;12.30;64.10;14.20;101978.00;;;;5007315;28;20725;-73
2024/02/28 10:40:41;;;;;;;14.18;10.88;;;12.30;64.00;14.20;101970.00;;;;5002141;28;20662;-73
2024/02/28 10:43:10;;;;;;;14.00;11.50;;;12.30;63.90;14.30;101978.00;;;;4994168;28;20201;-74
2024/02/28 10:45:38;;;;;;;11.77;10.52;;;12.30;64.00;14.30;101970.00;;;;5004036;28;20650;-76
2024/02/28 10:48:07;;;;;;;13.82;11.25;;;12.40;64.20;14.40;101968.00;;;;5004582;28;20283;-76
2024/02/28 10:50:34;;;;;;;13.55;11.18;;;12.40;64.30;14.50;101960.00;;;;5004718;28;20236;-76